sensor_id;sensor_type;location;lat;lon;timestamp;pressure;altitude;pressure_sealevel;temperature;humidity
70916;BME280;58557;50.982;-3.222;2023-09-30T00:00:23;101865.39;;;16.89;50.59
70916;BME280;58557;50.982;-3.222;2023-09-30T00:02:48;101870.60;;;17.36;51.97
70916;BME280;58557;50.982;-3.222;2023-09-30T00:05:14;101870.94;;;16.30;53.18
70916;BME280;58557;50.982;-3.222;2023-09-30T00:07:39;101864.20;;;17.12;52.60
70916;BME280;58557;50.982;-3.222;2023-09-30T00:10:06;101853.92;;;17.74;50.46
70916;BME280;58557;50.982;-3.222;2023-09-30T00:12:31;101855.77;;;17.99;49.25
70916;BME280;58557;50.982;-3.222;2023-09-30T00:14:56;101867.36;;;18.24;49.48
70916;BME280;58557;50.982;-3.222;2023-09-30T00:17:22;101875.36;;;18.46;48.07
70916;BME280;58557;50.982;-3.222;2023-09-30T00:19:47;101886.38;;;18.38;47.80
70916;BME280;58557;50.982;-3.222;2023-09-30T00:22:13;101882.28;;;17.76;48.13
70916;BME280;58557;50.982;-3.222;2023-09-30T00:24:38;101884.61;;;17.15;49.32
70916;BME280;58557;50.982;-3.222;2023-09-30T00:27:04;101888.87;;;17.16;50.09
70916;BME280;58557;50.982;-3.222;2023-09-30T00:29:29;101891.73;;;16.52;52.82
70916;BME280;58557;50.982;-3.222;2023-09-30T00:31:55;101888.02;;;17.88;49.78
70916;BME280;58557;50.982;-3.222;2023-09-30T00:34:20;101893.09;;;18.05;48.30
70916;BME280;58557;50.982;-3.222;2023-09-30T00:36:46;101900.65;;;17.45;49.84
70916;BME280;58557;50.982;-3.222;2023-09-30T00:39:12;101908.62;;;16.89;51.32
70916;BME280;58557;50.982;-3.222;2023-09-30T00:41:39;101903.25;;;17.03;50.37
70916;BME280;58557;50.982;-3.222;2023-09-30T00:44:03;101902.83;;;16.89;49.69
70916;BME280;58557;50.982;-3.222;2023-09-30T00:46:29;101898.10;;;16.03;52.83
70916;BME280;58557;50.982;-3.222;2023-09-30T00:48:55;101892.80;;;16.60;51.64
70916;BME280;58557;50.982;-3.222;2023-09-30T00:51:19;101877.35;;;17.63;50.88
70916;BME280;58557;50.982;-3.222;2023-09-30T00:53:45;101865.51;;;18.14;48.36
70916;BME280;58557;50.982;-3.222;2023-09-30T00:56:11;101862.19;;;17.63;49.01
70916;BME280;58557;50.982;-3.222;2023-09-30T00:58:38;101865.62;;;18.04;48.58
70916;BME280;58557;50.982;-3.222;2023-09-30T01:01:02;101866.52;;;17.62;48.69
70916;BME280;58557;50.982;-3.222;2023-09-30T01:03:27;101868.62;;;17.63;48.65
70916;BME280;58557;50.982;-3.222;2023-09-30T01:05:54;101870.33;;;18.28;48.70
70916;BME280;58557;50.982;-3.222;2023-09-30T01:08:19;101873.34;;;17.31;49.40
70916;BME280;58557;50.982;-3.222;2023-09-30T01:10:44;101867.71;;;18.59;46.76
70916;BME280;58557;50.982;-3.222;2023-09-30T01:13:09;101861.84;;;18.36;47.97
70916;BME280;58557;50.982;-3.222;2023-09-30T01:15:35;101852.94;;;17.79;48.69
70916;BME280;58557;50.982;-3.222;2023-09-30T01:18:00;101856.42;;;18.03;47.89
70916;BME280;58557;50.982;-3.222;2023-09-30T01:20:26;101862.38;;;18.18;47.24
70916;BME280;58557;50.982;-3.222;2023-09-30T01:22:52;101859.80;;;18.98;45.44
70916;BME280;58557;50.982;-3.222;2023-09-30T01:25:17;101854.79;;;18.21;47.18
70916;BME280;58557;50.982;-3.222;2023-09-30T01:27:42;101852.24;;;17.91;48.05
70916;BME280;58557;50.982;-3.222;2023-09-30T01:30:09;101852.56;;;16.93;50.92
70916;BME280;58557;50.982;-3.222;2023-09-30T01:32:33;101842.74;;;17.35;50.93
70916;BME280;58557;50.982;-3.222;2023-09-30T01:34:59;101834.58;;;17.86;49.41
70916;BME280;58557;50.982;-3.222;2023-09-30T01:37:27;101835.46;;;17.66;49.16
70916;BME280;58557;50.982;-3.222;2023-09-30T01:39:50;101839.82;;;18.30;46.99
70916;BME280;58557;50.982;-3.222;2023-09-30T01:42:15;101842.13;;;17.97;47.92
70916;BME280;58557;50.982;-3.222;2023-09-30T01:44:40;101835.84;;;17.42;48.73
70916;BME280;58557;50.982;-3.222;2023-09-30T01:47:06;101825.22;;;18.03;47.80
70916;BME280;58557;50.982;-3.222;2023-09-30T01:49:32;101823.42;;;17.88;47.62
70916;BME280;58557;50.982;-3.222;2023-09-30T01:51:57;101824.54;;;17.82;47.23
70916;BME280;58557;50.982;-3.222;2023-09-30T01:54:23;101815.18;;;18.08;47.05
70916;BME280;58557;50.982;-3.222;2023-09-30T01:56:49;101817.92;;;17.90;46.60
70916;BME280;58557;50.982;-3.222;2023-09-30T01:59:14;101827.79;;;17.65;46.68
70916;BME280;58557;50.982;-3.222;2023-09-30T02:01:40;101831.64;;;17.61;46.90
70916;BME280;58557;50.982;-3.222;2023-09-30T02:04:06;101827.73;;;18.13;46.65
70916;BME280;58557;50.982;-3.222;2023-09-30T02:06:31;101818.52;;;17.53;46.52
70916;BME280;58557;50.982;-3.222;2023-09-30T02:08:56;101813.03;;;17.49;46.91
70916;BME280;58557;50.982;-3.222;2023-09-30T02:11:22;101814.80;;;17.26;46.80
70916;BME280;58557;50.982;-3.222;2023-09-30T02:13:47;101812.57;;;17.99;46.89
70916;BME280;58557;50.982;-3.222;2023-09-30T02:16:13;101809.80;;;17.11;47.11
70916;BME280;58557;50.982;-3.222;2023-09-30T02:18:39;101805.80;;;17.24;47.04
70916;BME280;58557;50.982;-3.222;2023-09-30T02:21:04;101801.54;;;17.40;46.88
70916;BME280;58557;50.982;-3.222;2023-09-30T02:23:29;101804.46;;;17.42;46.69
70916;BME280;58557;50.982;-3.222;2023-09-30T02:25:54;101807.51;;;17.30;47.14
70916;BME280;58557;50.982;-3.222;2023-09-30T02:28:20;101807.84;;;16.78;47.22
70916;BME280;58557;50.982;-3.222;2023-09-30T02:30:45;101814.81;;;17.08;47.71
70916;BME280;58557;50.982;-3.222;2023-09-30T02:33:11;101820.15;;;16.64;47.25
70916;BME280;58557;50.982;-3.222;2023-09-30T02:35:36;101823.87;;;17.03;47.14
70916;BME280;58557;50.982;-3.222;2023-09-30T02:38:02;101821.49;;;16.95;47.15
70916;BME280;58557;50.982;-3.222;2023-09-30T02:40:28;101836.07;;;16.12;48.06
70916;BME280;58557;50.982;-3.222;2023-09-30T02:42:53;101836.60;;;16.19;48.53
70916;BME280;58557;50.982;-3.222;2023-09-30T02:45:19;101829.69;;;15.77;50.92
70916;BME280;58557;50.982;-3.222;2023-09-30T02:47:45;101822.31;;;16.43;50.10
70916;BME280;58557;50.982;-3.222;2023-09-30T02:50:11;101817.54;;;15.37;53.69
70916;BME280;58557;50.982;-3.222;2023-09-30T02:52:36;101811.21;;;15.52;53.32
70916;BME280;58557;50.982;-3.222;2023-09-30T02:55:02;101806.68;;;16.00;52.93
70916;BME280;58557;50.982;-3.222;2023-09-30T02:57:28;101806.85;;;16.21;51.87
70916;BME280;58557;50.982;-3.222;2023-09-30T02:59:53;101811.66;;;16.27;51.72
70916;BME280;58557;50.982;-3.222;2023-09-30T03:02:18;101801.41;;;16.70;51.58
70916;BME280;58557;50.982;-3.222;2023-09-30T03:04:44;101787.54;;;16.55;51.59
70916;BME280;58557;50.982;-3.222;2023-09-30T03:07:10;101782.56;;;17.07;51.08
70916;BME280;58557;50.982;-3.222;2023-09-30T03:09:35;101782.85;;;16.82;50.59
70916;BME280;58557;50.982;-3.222;2023-09-30T03:12:00;101781.74;;;17.10;49.76
70916;BME280;58557;50.982;-3.222;2023-09-30T03:14:26;101783.29;;;16.93;49.43
70916;BME280;58557;50.982;-3.222;2023-09-30T03:16:51;101785.97;;;17.44;49.66
70916;BME280;58557;50.982;-3.222;2023-09-30T03:19:17;101785.44;;;17.28;49.61
70916;BME280;58557;50.982;-3.222;2023-09-30T03:21:42;101776.30;;;17.54;49.31
70916;BME280;58557;50.982;-3.222;2023-09-30T03:24:09;101769.13;;;17.35;48.88
70916;BME280;58557;50.982;-3.222;2023-09-30T03:26:34;101768.54;;;17.55;48.52
70916;BME280;58557;50.982;-3.222;2023-09-30T03:29:00;101765.11;;;17.60;48.53
70916;BME280;58557;50.982;-3.222;2023-09-30T03:31:25;101761.83;;;17.49;48.19
70916;BME280;58557;50.982;-3.222;2023-09-30T03:33:50;101756.52;;;16.62;48.84
70916;BME280;58557;50.982;-3.222;2023-09-30T03:36:15;101759.07;;;16.70;48.75
70916;BME280;58557;50.982;-3.222;2023-09-30T03:38:41;101763.94;;;17.17;49.09
70916;BME280;58557;50.982;-3.222;2023-09-30T03:41:06;101769.17;;;16.69;49.31
70916;BME280;58557;50.982;-3.222;2023-09-30T03:43:32;101769.72;;;16.81;50.13
70916;BME280;58557;50.982;-3.222;2023-09-30T03:45:58;101766.85;;;16.11;51.37
70916;BME280;58557;50.982;-3.222;2023-09-30T03:48:23;101761.53;;;15.01;54.04
70916;BME280;58557;50.982;-3.222;2023-09-30T03:50:49;101763.05;;;16.33;52.19
70916;BME280;58557;50.982;-3.222;2023-09-30T03:53:15;101757.10;;;14.84;57.02
70916;BME280;58557;50.982;-3.222;2023-09-30T03:55:41;101761.53;;;14.25;59.11
70916;BME280;58557;50.982;-3.222;2023-09-30T03:58:06;101757.79;;;15.25;56.33
70916;BME280;58557;50.982;-3.222;2023-09-30T04:00:32;101757.98;;;13.39;60.88
70916;BME280;58557;50.982;-3.222;2023-09-30T04:02:57;101754.89;;;15.57;56.60
70916;BME280;58557;50.982;-3.222;2023-09-30T04:05:23;101754.28;;;15.68;56.40
70916;BME280;58557;50.982;-3.222;2023-09-30T04:07:48;101754.15;;;15.42;55.25
70916;BME280;58557;50.982;-3.222;2023-09-30T04:10:13;101746.21;;;16.32;53.74
70916;BME280;58557;50.982;-3.222;2023-09-30T04:12:39;101739.04;;;16.64;52.66
70916;BME280;58557;50.982;-3.222;2023-09-30T04:15:06;101740.08;;;16.22;51.69
70916;BME280;58557;50.982;-3.222;2023-09-30T04:17:31;101745.45;;;14.93;54.71
70916;BME280;58557;50.982;-3.222;2023-09-30T04:19:56;101747.57;;;15.36;54.06
70916;BME280;58557;50.982;-3.222;2023-09-30T04:22:22;101759.69;;;15.29;56.46
70916;BME280;58557;50.982;-3.222;2023-09-30T04:24:47;101759.43;;;14.14;57.91
70916;BME280;58557;50.982;-3.222;2023-09-30T04:27:13;101762.89;;;16.68;52.47
70916;BME280;58557;50.982;-3.222;2023-09-30T04:29:39;101759.73;;;16.13;54.20
70916;BME280;58557;50.982;-3.222;2023-09-30T04:32:05;101752.38;;;16.52;53.95
70916;BME280;58557;50.982;-3.222;2023-09-30T04:34:30;101750.46;;;17.13;49.69
70916;BME280;58557;50.982;-3.222;2023-09-30T04:36:56;101757.46;;;16.23;51.20
70916;BME280;58557;50.982;-3.222;2023-09-30T04:39:22;101749.40;;;16.20;52.79
70916;BME280;58557;50.982;-3.222;2023-09-30T04:41:48;101736.24;;;16.73;51.28
70916;BME280;58557;50.982;-3.222;2023-09-30T04:44:14;101731.61;;;17.07;50.21
70916;BME280;58557;50.982;-3.222;2023-09-30T04:46:39;101724.18;;;16.89;49.99
70916;BME280;58557;50.982;-3.222;2023-09-30T04:49:04;101729.72;;;17.09;49.38
70916;BME280;58557;50.982;-3.222;2023-09-30T04:51:29;101730.60;;;17.19;49.48
70916;BME280;58557;50.982;-3.222;2023-09-30T04:53:55;101728.06;;;17.19;48.54
70916;BME280;58557;50.982;-3.222;2023-09-30T04:56:21;101734.04;;;16.92;48.11
70916;BME280;58557;50.982;-3.222;2023-09-30T04:58:46;101746.35;;;16.55;48.40
70916;BME280;58557;50.982;-3.222;2023-09-30T05:01:12;101745.17;;;17.35;47.22
70916;BME280;58557;50.982;-3.222;2023-09-30T05:03:38;101749.34;;;17.03;48.07
70916;BME280;58557;50.982;-3.222;2023-09-30T05:06:04;101755.29;;;16.74;47.30
70916;BME280;58557;50.982;-3.222;2023-09-30T05:08:29;101759.83;;;16.59;48.31
70916;BME280;58557;50.982;-3.222;2023-09-30T05:10:55;101767.67;;;16.54;48.40
70916;BME280;58557;50.982;-3.222;2023-09-30T05:13:21;101768.03;;;16.64;48.64
70916;BME280;58557;50.982;-3.222;2023-09-30T05:15:46;101768.05;;;15.80;49.64
70916;BME280;58557;50.982;-3.222;2023-09-30T05:18:11;101767.79;;;15.24;50.16
70916;BME280;58557;50.982;-3.222;2023-09-30T05:20:37;101763.51;;;15.23;51.15
70916;BME280;58557;50.982;-3.222;2023-09-30T05:23:03;101762.80;;;16.12;49.25
70916;BME280;58557;50.982;-3.222;2023-09-30T05:25:28;101761.44;;;15.90;49.01
70916;BME280;58557;50.982;-3.222;2023-09-30T05:27:55;101752.14;;;16.57;47.68
70916;BME280;58557;50.982;-3.222;2023-09-30T05:30:20;101743.39;;;16.12;48.16
70916;BME280;58557;50.982;-3.222;2023-09-30T05:32:46;101738.54;;;16.34;48.09
70916;BME280;58557;50.982;-3.222;2023-09-30T05:35:12;101737.82;;;15.96;48.26
70916;BME280;58557;50.982;-3.222;2023-09-30T05:37:37;101728.80;;;16.94;47.18
70916;BME280;58557;50.982;-3.222;2023-09-30T05:40:02;101723.49;;;16.38;47.53
70916;BME280;58557;50.982;-3.222;2023-09-30T05:42:28;101728.43;;;16.17;47.78
70916;BME280;58557;50.982;-3.222;2023-09-30T05:44:53;101731.37;;;15.86;48.33
70916;BME280;58557;50.982;-3.222;2023-09-30T05:47:19;101727.92;;;16.21;47.88
70916;BME280;58557;50.982;-3.222;2023-09-30T05:49:44;101730.41;;;16.06;48.36
70916;BME280;58557;50.982;-3.222;2023-09-30T05:52:10;101741.07;;;16.06;48.63
70916;BME280;58557;50.982;-3.222;2023-09-30T05:54:35;101755.00;;;16.03;48.69
70916;BME280;58557;50.982;-3.222;2023-09-30T05:57:01;101759.86;;;16.35;48.45
70916;BME280;58557;50.982;-3.222;2023-09-30T05:59:27;101770.19;;;15.92;48.60
70916;BME280;58557;50.982;-3.222;2023-09-30T06:01:52;101766.91;;;15.74;48.63
70916;BME280;58557;50.982;-3.222;2023-09-30T06:04:18;101761.23;;;16.22;48.18
70916;BME280;58557;50.982;-3.222;2023-09-30T06:06:44;101760.19;;;15.94;47.97
70916;BME280;58557;50.982;-3.222;2023-09-30T06:09:09;101756.57;;;16.04;48.49
70916;BME280;58557;50.982;-3.222;2023-09-30T06:11:35;101748.26;;;16.14;48.77
70916;BME280;58557;50.982;-3.222;2023-09-30T06:14:00;101744.54;;;15.99;49.13
70916;BME280;58557;50.982;-3.222;2023-09-30T06:16:25;101762.99;;;16.11;49.19
70916;BME280;58557;50.982;-3.222;2023-09-30T06:18:50;101774.41;;;16.72;48.95
70916;BME280;58557;50.982;-3.222;2023-09-30T06:21:16;101781.23;;;16.08;48.83
70916;BME280;58557;50.982;-3.222;2023-09-30T06:23:42;101781.15;;;16.99;48.56
70916;BME280;58557;50.982;-3.222;2023-09-30T06:26:07;101766.32;;;17.11;47.21
70916;BME280;58557;50.982;-3.222;2023-09-30T06:28:33;101753.63;;;17.27;45.90
70916;BME280;58557;50.982;-3.222;2023-09-30T06:30:59;101762.07;;;17.27;45.92
70916;BME280;58557;50.982;-3.222;2023-09-30T06:33:25;101753.81;;;17.50;46.22
70916;BME280;58557;50.982;-3.222;2023-09-30T06:35:50;101749.08;;;16.82;47.29
70916;BME280;58557;50.982;-3.222;2023-09-30T06:38:16;101760.28;;;16.58;47.27
70916;BME280;58557;50.982;-3.222;2023-09-30T06:40:42;101771.77;;;15.86;49.23
70916;BME280;58557;50.982;-3.222;2023-09-30T06:43:07;101766.01;;;16.52;49.97
70916;BME280;58557;50.982;-3.222;2023-09-30T06:45:32;101761.95;;;17.14;49.08
70916;BME280;58557;50.982;-3.222;2023-09-30T06:47:58;101767.08;;;17.30;48.78
70916;BME280;58557;50.982;-3.222;2023-09-30T06:50:23;101771.55;;;17.53;49.25
70916;BME280;58557;50.982;-3.222;2023-09-30T06:52:48;101776.15;;;17.31;48.46
70916;BME280;58557;50.982;-3.222;2023-09-30T06:55:14;101775.15;;;17.85;47.64
70916;BME280;58557;50.982;-3.222;2023-09-30T06:57:39;101784.49;;;17.59;48.32
70916;BME280;58557;50.982;-3.222;2023-09-30T07:00:05;101779.31;;;17.50;48.76
70916;BME280;58557;50.982;-3.222;2023-09-30T07:02:31;101779.48;;;17.78;47.16
70916;BME280;58557;50.982;-3.222;2023-09-30T07:04:56;101772.56;;;17.04;50.20
70916;BME280;58557;50.982;-3.222;2023-09-30T07:07:22;101766.13;;;15.88;50.29
70916;BME280;58557;50.982;-3.222;2023-09-30T07:09:47;101756.15;;;17.16;49.37
70916;BME280;58557;50.982;-3.222;2023-09-30T07:12:13;101756.87;;;17.42;50.23
70916;BME280;58557;50.982;-3.222;2023-09-30T07:14:38;101750.11;;;17.66;49.57
70916;BME280;58557;50.982;-3.222;2023-09-30T07:17:04;101751.43;;;17.69;48.78
70916;BME280;58557;50.982;-3.222;2023-09-30T07:19:30;101758.11;;;18.36;48.34
70916;BME280;58557;50.982;-3.222;2023-09-30T07:21:55;101749.50;;;18.05;46.86
70916;BME280;58557;50.982;-3.222;2023-09-30T07:24:21;101748.06;;;18.33;47.09
70916;BME280;58557;50.982;-3.222;2023-09-30T07:26:46;101749.59;;;18.24;47.02
70916;BME280;58557;50.982;-3.222;2023-09-30T07:29:12;101746.87;;;18.95;47.31
70916;BME280;58557;50.982;-3.222;2023-09-30T07:31:38;101752.29;;;18.74;46.58
70916;BME280;58557;50.982;-3.222;2023-09-30T07:34:03;101754.42;;;19.23;46.20
70916;BME280;58557;50.982;-3.222;2023-09-30T07:36:29;101765.59;;;19.74;45.96
70916;BME280;58557;50.982;-3.222;2023-09-30T07:38:55;101782.42;;;18.38;45.37
70916;BME280;58557;50.982;-3.222;2023-09-30T07:41:20;101782.70;;;17.75;46.92
70916;BME280;58557;50.982;-3.222;2023-09-30T07:43:46;101776.93;;;17.86;48.39
70916;BME280;58557;50.982;-3.222;2023-09-30T07:46:11;101773.42;;;16.99;49.08
70916;BME280;58557;50.982;-3.222;2023-09-30T07:48:36;101771.90;;;19.35;46.09
70916;BME280;58557;50.982;-3.222;2023-09-30T07:51:02;101770.20;;;19.87;44.84
70916;BME280;58557;50.982;-3.222;2023-09-30T07:53:28;101766.86;;;20.00;43.19
70916;BME280;58557;50.982;-3.222;2023-09-30T07:55:53;101766.11;;;18.80;46.24
70916;BME280;58557;50.982;-3.222;2023-09-30T07:58:18;101765.67;;;20.12;42.71
70916;BME280;58557;50.982;-3.222;2023-09-30T08:00:44;101771.53;;;20.50;43.11
70916;BME280;58557;50.982;-3.222;2023-09-30T08:03:09;101781.19;;;19.12;44.96
70916;BME280;58557;50.982;-3.222;2023-09-30T08:05:34;101775.66;;;20.12;45.06
70916;BME280;58557;50.982;-3.222;2023-09-30T08:08:01;101772.14;;;21.20;41.85
70916;BME280;58557;50.982;-3.222;2023-09-30T08:10:25;101777.41;;;21.42;41.04
70916;BME280;58557;50.982;-3.222;2023-09-30T08:12:51;101784.76;;;20.97;41.67
70916;BME280;58557;50.982;-3.222;2023-09-30T08:15:17;101780.76;;;21.67;41.14
70916;BME280;58557;50.982;-3.222;2023-09-30T08:17:42;101767.58;;;22.15;40.03
70916;BME280;58557;50.982;-3.222;2023-09-30T08:20:08;101765.66;;;22.01;40.21
70916;BME280;58557;50.982;-3.222;2023-09-30T08:22:33;101766.77;;;22.18;39.45
70916;BME280;58557;50.982;-3.222;2023-09-30T08:24:58;101767.72;;;21.61;39.84
70916;BME280;58557;50.982;-3.222;2023-09-30T08:27:24;101768.09;;;21.99;39.63
70916;BME280;58557;50.982;-3.222;2023-09-30T08:29:49;101766.71;;;21.34;40.80
70916;BME280;58557;50.982;-3.222;2023-09-30T08:32:15;101749.95;;;21.42;40.80
70916;BME280;58557;50.982;-3.222;2023-09-30T08:34:41;101753.72;;;22.39;39.48
70916;BME280;58557;50.982;-3.222;2023-09-30T08:37:06;101766.71;;;22.55;39.29
70916;BME280;58557;50.982;-3.222;2023-09-30T08:39:32;101765.16;;;22.14;40.17
70916;BME280;58557;50.982;-3.222;2023-09-30T08:41:57;101760.85;;;22.11;40.36
70916;BME280;58557;50.982;-3.222;2023-09-30T08:44:23;101756.36;;;22.17;40.59
70916;BME280;58557;50.982;-3.222;2023-09-30T08:46:49;101753.75;;;22.53;40.76
70916;BME280;58557;50.982;-3.222;2023-09-30T08:49:14;101762.09;;;22.45;41.24
70916;BME280;58557;50.982;-3.222;2023-09-30T08:51:38;101761.07;;;22.52;41.38
70916;BME280;58557;50.982;-3.222;2023-09-30T08:54:05;101760.42;;;21.47;43.87
70916;BME280;58557;50.982;-3.222;2023-09-30T08:56:31;101756.49;;;22.81;42.05
70916;BME280;58557;50.982;-3.222;2023-09-30T08:58:57;101748.36;;;21.78;43.02
70916;BME280;58557;50.982;-3.222;2023-09-30T09:01:20;101730.60;;;20.82;45.11
70916;BME280;58557;50.982;-3.222;2023-09-30T09:03:46;101728.73;;;20.56;46.87
70916;BME280;58557;50.982;-3.222;2023-09-30T09:06:11;101720.32;;;21.08;47.32
70916;BME280;58557;50.982;-3.222;2023-09-30T09:08:37;101709.74;;;20.74;46.90
70916;BME280;58557;50.982;-3.222;2023-09-30T09:11:03;101694.07;;;21.03;47.36
70916;BME280;58557;50.982;-3.222;2023-09-30T09:13:28;101681.84;;;20.82;46.90
70916;BME280;58557;50.982;-3.222;2023-09-30T09:16:07;101670.11;;;21.41;46.43
70916;BME280;58557;50.982;-3.222;2023-09-30T09:20:45;101654.95;;;20.94;45.79
70916;BME280;58557;50.982;-3.222;2023-09-30T09:23:15;101660.35;;;21.14;46.35
70916;BME280;58557;50.982;-3.222;2023-09-30T09:25:38;101685.99;;;21.42;45.70
70916;BME280;58557;50.982;-3.222;2023-09-30T09:28:01;101703.28;;;21.70;45.55
70916;BME280;58557;50.982;-3.222;2023-09-30T09:30:26;101710.14;;;21.65;45.87
70916;BME280;58557;50.982;-3.222;2023-09-30T09:32:56;101715.50;;;20.42;46.77
70916;BME280;58557;50.982;-3.222;2023-09-30T09:35:19;101713.51;;;20.11;47.79
70916;BME280;58557;50.982;-3.222;2023-09-30T09:37:42;101697.63;;;21.19;46.07
70916;BME280;58557;50.982;-3.222;2023-09-30T09:40:08;101687.41;;;21.70;46.01
70916;BME280;58557;50.982;-3.222;2023-09-30T09:42:33;101685.67;;;20.96;46.60
70916;BME280;58557;50.982;-3.222;2023-09-30T09:45:01;101685.03;;;21.06;46.55
70916;BME280;58557;50.982;-3.222;2023-09-30T09:47:24;101683.57;;;20.66;46.82
70916;BME280;58557;50.982;-3.222;2023-09-30T09:49:50;101685.99;;;21.00;47.26
70916;BME280;58557;50.982;-3.222;2023-09-30T09:52:16;101678.45;;;20.72;47.16
70916;BME280;58557;50.982;-3.222;2023-09-30T09:54:41;101680.94;;;20.14;47.90
70916;BME280;58557;50.982;-3.222;2023-09-30T09:57:09;101672.24;;;20.48;47.37
70916;BME280;58557;50.982;-3.222;2023-09-30T09:59:32;101667.72;;;21.26;46.12
70916;BME280;58557;50.982;-3.222;2023-09-30T10:01:59;101665.71;;;20.97;46.21
70916;BME280;58557;50.982;-3.222;2023-09-30T10:04:23;101652.88;;;21.65;45.89
70916;BME280;58557;50.982;-3.222;2023-09-30T10:06:51;101651.91;;;21.32;44.97
70916;BME280;58557;50.982;-3.222;2023-09-30T10:09:14;101662.58;;;20.25;47.19
70916;BME280;58557;50.982;-3.222;2023-09-30T10:11:40;101669.51;;;20.07;47.31
70916;BME280;58557;50.982;-3.222;2023-09-30T10:14:05;101669.05;;;20.25;47.38
70916;BME280;58557;50.982;-3.222;2023-09-30T10:16:48;101674.85;;;20.05;47.39
70916;BME280;58557;50.982;-3.222;2023-09-30T10:19:07;101665.72;;;20.44;46.71
70916;BME280;58557;50.982;-3.222;2023-09-30T10:21:21;101657.29;;;20.53;46.75
70916;BME280;58557;50.982;-3.222;2023-09-30T10:23:47;101652.80;;;20.96;46.14
70916;BME280;58557;50.982;-3.222;2023-09-30T10:26:15;101646.15;;;20.43;46.29
70916;BME280;58557;50.982;-3.222;2023-09-30T10:28:40;101651.38;;;20.88;45.85
70916;BME280;58557;50.982;-3.222;2023-09-30T10:31:10;101644.90;;;20.44;46.92
70916;BME280;58557;50.982;-3.222;2023-09-30T10:33:29;101645.00;;;20.92;46.31
70916;BME280;58557;50.982;-3.222;2023-09-30T10:35:55;101644.18;;;20.42;46.77
70916;BME280;58557;50.982;-3.222;2023-09-30T10:38:36;101644.49;;;20.88;46.07
70916;BME280;58557;50.982;-3.222;2023-09-30T10:40:46;101646.08;;;20.25;46.95
70916;BME280;58557;50.982;-3.222;2023-09-30T10:45:44;101649.18;;;20.32;47.37
70916;BME280;58557;50.982;-3.222;2023-09-30T10:52:54;101631.58;;;21.89;45.52
70916;BME280;58557;50.982;-3.222;2023-09-30T10:55:19;101629.27;;;21.45;45.10
70916;BME280;58557;50.982;-3.222;2023-09-30T10:57:44;101632.69;;;20.98;46.29
70916;BME280;58557;50.982;-3.222;2023-09-30T11:00:11;101636.67;;;21.55;45.44
70916;BME280;58557;50.982;-3.222;2023-09-30T11:02:39;101642.07;;;22.05;43.92
70916;BME280;58557;50.982;-3.222;2023-09-30T11:05:09;101647.68;;;20.59;44.55
70916;BME280;58557;50.982;-3.222;2023-09-30T11:07:29;101641.28;;;20.70;44.92
70916;BME280;58557;50.982;-3.222;2023-09-30T11:09:54;101638.92;;;21.44;43.68
70916;BME280;58557;50.982;-3.222;2023-09-30T11:12:18;101637.26;;;21.13;42.80
70916;BME280;58557;50.982;-3.222;2023-09-30T11:14:43;101636.26;;;20.78;44.21
70916;BME280;58557;50.982;-3.222;2023-09-30T11:17:09;101633.92;;;21.10;43.87
70916;BME280;58557;50.982;-3.222;2023-09-30T11:19:35;101628.44;;;20.35;44.95
70916;BME280;58557;50.982;-3.222;2023-09-30T11:22:00;101630.50;;;20.02;46.50
70916;BME280;58557;50.982;-3.222;2023-09-30T11:24:25;101632.03;;;19.88;46.29
70916;BME280;58557;50.982;-3.222;2023-09-30T11:26:53;101628.24;;;19.17;48.02
70916;BME280;58557;50.982;-3.222;2023-09-30T11:29:17;101626.09;;;19.02;49.35
70916;BME280;58557;50.982;-3.222;2023-09-30T11:31:43;101623.18;;;19.70;48.12
70916;BME280;58557;50.982;-3.222;2023-09-30T11:34:07;101624.88;;;19.49;48.21
70916;BME280;58557;50.982;-3.222;2023-09-30T11:36:34;101626.52;;;20.44;46.97
70916;BME280;58557;50.982;-3.222;2023-09-30T11:38:58;101620.79;;;20.84;46.13
70916;BME280;58557;50.982;-3.222;2023-09-30T11:41:32;101620.93;;;20.90;46.26
70916;BME280;58557;50.982;-3.222;2023-09-30T11:43:58;101622.20;;;20.82;45.94
70916;BME280;58557;50.982;-3.222;2023-09-30T11:46:14;101621.55;;;20.36;47.26
70916;BME280;58557;50.982;-3.222;2023-09-30T11:48:55;101617.45;;;20.65;47.21
70916;BME280;58557;50.982;-3.222;2023-09-30T11:51:05;101616.18;;;21.59;45.11
70916;BME280;58557;50.982;-3.222;2023-09-30T11:53:30;101610.67;;;20.81;45.86
70916;BME280;58557;50.982;-3.222;2023-09-30T11:55:56;101610.16;;;19.64;47.96
70916;BME280;58557;50.982;-3.222;2023-09-30T11:58:21;101613.78;;;19.76;48.34
70916;BME280;58557;50.982;-3.222;2023-09-30T12:00:47;101602.74;;;19.79;48.86
70916;BME280;58557;50.982;-3.222;2023-09-30T12:03:12;101599.35;;;20.55;47.62
70916;BME280;58557;50.982;-3.222;2023-09-30T12:05:37;101591.81;;;20.85;47.59
70916;BME280;58557;50.982;-3.222;2023-09-30T12:08:04;101583.77;;;21.58;46.35
70916;BME280;58557;50.982;-3.222;2023-09-30T12:10:29;101577.32;;;21.75;45.43
70916;BME280;58557;50.982;-3.222;2023-09-30T12:12:54;101584.40;;;21.29;46.91
70916;BME280;58557;50.982;-3.222;2023-09-30T12:15:20;101586.78;;;19.95;47.88
70916;BME280;58557;50.982;-3.222;2023-09-30T12:17:45;101583.83;;;20.23;49.29
70916;BME280;58557;50.982;-3.222;2023-09-30T12:20:11;101584.88;;;19.71;49.51
70916;BME280;58557;50.982;-3.222;2023-09-30T12:22:36;101580.38;;;19.78;50.67
70916;BME280;58557;50.982;-3.222;2023-09-30T12:25:02;101581.33;;;20.81;48.07
70916;BME280;58557;50.982;-3.222;2023-09-30T12:27:27;101572.60;;;20.40;48.21
70916;BME280;58557;50.982;-3.222;2023-09-30T12:29:53;101562.85;;;20.48;48.65
70916;BME280;58557;50.982;-3.222;2023-09-30T12:32:18;101560.62;;;20.87;48.06
70916;BME280;58557;50.982;-3.222;2023-09-30T12:34:44;101558.09;;;21.20;47.98
70916;BME280;58557;50.982;-3.222;2023-09-30T12:37:09;101552.14;;;20.47;48.42
70916;BME280;58557;50.982;-3.222;2023-09-30T12:39:35;101546.45;;;20.59;48.37